Time;durP1;ratioP1;P1;durP2;ratioP2;P2;SDS_P1;SDS_P2;PMS_P1;PMS_P2;Temp;Humidity;BMP_temperature;BMP_pressure;BME280_temperature;BME280_humidity;BME280_pressure;Samples;Min_cycle;Max_cycle;Signal;HPM_P1;HPM_P2
2022/06/14 00:01:55;;;;;;;1.17;0.68;;;25.80;42.90;;;;;;5059077;28;20045;-64
2022/06/14 00:04:20;;;;;;;0.95;0.80;;;25.80;42.90;;;;;;5053935;28;20100;-63
2022/06/14 00:06:46;;;;;;;0.88;0.70;;;25.80;43.00;;;;;;5058438;28;20042;-62
2022/06/14 00:09:12;;;;;;;1.20;0.80;;;25.80;43.00;;;;;;5057368;28;20040;-61
2022/06/14 00:11:39;;;;;;;0.98;0.70;;;25.80;43.10;;;;;;5055128;28;20044;-62
2022/06/14 00:14:08;;;;;;;1.17;0.70;;;25.70;43.00;;;;;;5056668;28;20033;-64
2022/06/14 00:16:34;;;;;;;0.70;0.60;;;25.70;43.00;;;;;;5058533;28;20047;-63
2022/06/14 00:19:04;;;;;;;0.90;0.80;;;25.70;43.10;;;;;;5057416;28;20033;-61
2022/06/14 00:21:30;;;;;;;1.27;0.80;;;25.70;43.10;;;;;;5058079;28;20024;-66
2022/06/14 00:23:56;;;;;;;0.70;0.60;;;25.70;43.10;;;;;;5055531;28;20056;-66
2022/06/14 00:26:21;;;;;;;1.02;0.73;;;25.70;43.10;;;;;;5058216;28;20698;-61
2022/06/14 00:28:47;;;;;;;1.33;0.70;;;25.70;43.10;;;;;;5056947;28;20086;-64
2022/06/14 00:31:16;;;;;;;0.80;0.70;;;25.70;43.10;;;;;;5056555;28;20071;-61
2022/06/14 00:33:42;;;;;;;0.95;0.70;;;25.70;43.20;;;;;;5057547;28;20066;-66
2022/06/14 00:36:21;;;;;;;0.85;0.77;;;25.70;43.20;;;;;;5056625;28;20036;-63
2022/06/14 00:38:47;;;;;;;0.95;0.80;;;25.70;43.20;;;;;;5053334;28;20035;-64
2022/06/14 00:41:38;;;;;;;1.05;0.70;;;25.60;43.20;;;;;;5057645;28;20077;-62
2022/06/14 00:44:07;;;;;;;0.82;0.70;;;25.60;43.20;;;;;;5057007;28;20024;-63
2022/06/14 00:46:55;;;;;;;1.15;0.77;;;25.60;43.30;;;;;;5057942;28;20143;-63
2022/06/14 00:49:36;;;;;;;1.08;0.80;;;25.60;43.30;;;;;;5046062;28;20078;-64
2022/06/14 00:52:15;;;;;;;1.00;0.70;;;25.60;43.30;;;;;;5056856;28;20119;-64
2022/06/14 00:54:44;;;;;;;1.13;0.70;;;25.60;43.30;;;;;;5054550;28;20047;-64
2022/06/14 00:57:18;;;;;;;;;;;25.60;43.30;;;;;;5058385;28;20077;-66
2022/06/14 01:00:06;;;;;;;0.77;0.70;;;25.50;43.30;;;;;;5038709;28;19912;-64
2022/06/14 01:02:38;;;;;;;1.15;0.70;;;25.50;43.30;;;;;;5056661;28;20373;-65
2022/06/14 01:05:07;;;;;;;1.08;0.80;;;25.50;43.30;;;;;;5056327;28;20672;-64
2022/06/14 01:07:40;;;;;;;1.05;0.70;;;25.50;43.30;;;;;;5055356;28;20106;-62
2022/06/14 01:10:07;;;;;;;1.27;0.80;;;25.50;43.40;;;;;;5056103;28;20078;-64
2022/06/14 01:12:40;;;;;;;0.88;0.70;;;25.50;43.40;;;;;;5057757;28;20548;-64
2022/06/14 01:15:20;;;;;;;0.73;0.60;;;25.50;43.50;;;;;;5056007;28;20036;-64
2022/06/14 01:17:53;;;;;;;1.30;0.80;;;25.50;43.50;;;;;;5055785;28;20051;-64
2022/06/14 01:20:20;;;;;;;1.65;0.77;;;25.40;43.40;;;;;;5056214;28;20036;-65
2022/06/14 01:22:48;;;;;;;1.10;0.70;;;25.40;43.50;;;;;;5053911;28;20086;-64
2022/06/14 01:25:14;;;;;;;0.90;0.70;;;25.50;43.50;;;;;;5056387;28;20039;-65
2022/06/14 01:27:41;;;;;;;0.98;0.70;;;25.50;43.50;;;;;;5055246;28;20053;-65
2022/06/14 01:30:14;;;;;;;1.27;1.05;;;25.40;43.50;;;;;;5056367;28;20501;-63
2022/06/14 01:33:01;;;;;;;1.20;0.73;;;25.40;43.50;;;;;;5051964;28;20605;-64
2022/06/14 01:35:34;;;;;;;0.93;0.68;;;25.40;43.60;;;;;;5055798;28;20028;-66
2022/06/14 01:38:02;;;;;;;0.82;0.68;;;25.40;43.60;;;;;;5053786;28;20613;-64
2022/06/14 01:40:54;;;;;;;0.70;0.60;;;25.40;43.60;;;;;;5055780;28;20025;-66
2022/06/14 01:43:45;;;;;;;0.70;0.70;;;25.40;43.60;;;;;;5038603;28;20029;-64
2022/06/14 01:46:21;;;;;;;1.08;0.73;;;25.40;43.70;;;;;;5054577;28;20132;-65
2022/06/14 01:52:23;;;;;;;0.60;0.60;;;25.40;43.70;;;;;;5055974;28;20062;-61
2022/06/14 01:55:04;;;;;;;0.75;0.75;;;25.40;43.70;;;;;;5053269;28;20115;-64
2022/06/14 01:57:58;;;;;;;1.17;0.80;;;25.30;43.70;;;;;;5055312;28;20105;-65
2022/06/14 02:00:32;;;;;;;1.30;0.73;;;25.30;43.70;;;;;;5053493;28;20036;-64
2022/06/14 02:06:15;;;;;;;0.90;0.80;;;25.30;43.70;;;;;;5058948;28;20054;-60
2022/06/14 02:08:51;;;;;;;1.08;0.80;;;25.30;43.70;;;;;;5057160;28;20032;-64
2022/06/14 02:11:29;;;;;;;0.70;0.60;;;25.30;43.80;;;;;;5060056;28;20144;-64
2022/06/14 02:14:20;;;;;;;1.23;0.80;;;25.30;43.80;;;;;;5057000;28;20098;-66
2022/06/14 02:17:11;;;;;;;1.00;0.80;;;25.30;43.80;;;;;;5057572;28;20073;-64
2022/06/14 02:19:45;;;;;;;1.00;0.70;;;25.30;43.80;;;;;;5059751;28;20108;-64
2022/06/14 02:22:33;;;;;;;0.75;0.65;;;25.30;43.80;;;;;;5059994;28;20431;-63
2022/06/14 02:25:12;;;;;;;1.17;0.77;;;25.30;43.90;;;;;;5056572;28;20093;-66
2022/06/14 02:28:07;;;;;;;0.93;0.75;;;25.30;43.90;;;;;;5058528;28;20038;-64
2022/06/14 02:30:40;;;;;;;1.00;0.70;;;25.20;43.80;;;;;;5058098;28;20048;-66
2022/06/14 02:33:20;;;;;;;0.70;0.65;;;25.20;44.40;;;;;;5060453;28;20049;-62
2022/06/14 02:36:00;;;;;;;0.82;0.52;;;25.20;43.90;;;;;;5059305;28;20064;-64
2022/06/14 02:38:41;;;;;;;0.68;0.60;;;25.20;43.90;;;;;;5056549;28;20459;-64
2022/06/14 02:41:24;;;;;;;0.90;0.70;;;25.20;44.00;;;;;;5059473;28;20042;-61
2022/06/14 02:44:09;;;;;;;1.48;0.70;;;25.20;43.90;;;;;;5059877;28;20044;-65
2022/06/14 02:46:51;;;;;;;0.82;0.80;;;25.20;43.90;;;;;;5059019;28;20408;-63
2022/06/14 02:49:20;;;;;;;0.60;0.60;;;25.20;44.00;;;;;;5060261;28;20027;-63
2022/06/14 02:52:04;;;;;;;0.95;0.77;;;25.20;44.00;;;;;;5059668;28;20044;-64
2022/06/14 02:54:34;;;;;;;0.75;0.60;;;25.20;44.00;;;;;;5056687;28;20028;-66
2022/06/14 02:57:15;;;;;;;0.60;0.60;;;25.20;44.10;;;;;;5059485;28;20039;-64
2022/06/14 02:59:52;;;;;;;1.00;0.80;;;25.20;44.10;;;;;;5058720;28;20088;-64
2022/06/14 03:02:23;;;;;;;1.35;0.63;;;25.20;44.10;;;;;;5059338;28;20517;-64
2022/06/14 03:05:03;;;;;;;0.77;0.60;;;25.10;44.00;;;;;;5058468;28;20020;-64
2022/06/14 03:07:44;;;;;;;0.60;0.60;;;25.10;44.00;;;;;;5058642;28;20036;-66
2022/06/14 03:10:10;;;;;;;0.82;0.70;;;25.10;44.00;;;;;;5056810;28;20448;-62
2022/06/14 03:13:04;;;;;;;0.60;0.60;;;25.10;44.10;;;;;;5060423;28;20021;-65
2022/06/14 03:15:35;;;;;;;0.95;0.82;;;25.10;44.10;;;;;;5055523;28;20036;-64
2022/06/14 03:18:36;;;;;;;0.82;0.70;;;25.10;44.10;;;;;;5059612;28;20032;-64
2022/06/14 03:21:15;;;;;;;0.68;0.60;;;25.10;44.10;;;;;;5057514;28;20126;-62
2022/06/14 03:24:03;;;;;;;0.85;0.70;;;25.10;44.10;;;;;;5057810;28;20807;-64
2022/06/14 03:26:45;;;;;;;2.17;0.90;;;25.10;44.10;;;;;;5057765;28;20805;-65
2022/06/14 03:29:22;;;;;;;0.80;0.70;;;25.10;44.20;;;;;;5051775;28;20089;-63
2022/06/14 03:32:21;;;;;;;0.95;0.65;;;25.10;44.20;;;;;;5057360;28;20127;-61
2022/06/14 03:34:52;;;;;;;1.10;0.80;;;25.10;44.20;;;;;;5056286;28;20048;-63
2022/06/14 03:37:18;;;;;;;0.70;0.70;;;25.10;44.20;;;;;;5040970;28;20287;-63
2022/06/14 03:39:50;;;;;;;0.75;0.60;;;25.10;44.30;;;;;;5055783;28;20028;-65
2022/06/14 03:42:16;;;;;;;0.75;0.70;;;25.10;44.80;;;;;;5060840;28;20422;-66
2022/06/14 03:44:42;;;;;;;0.73;0.65;;;25.10;44.30;;;;;;5058389;28;20074;-64
2022/06/14 03:47:23;;;;;;;0.70;0.70;;;25.10;44.30;;;;;;5058780;28;20028;-64
2022/06/14 03:49:54;;;;;;;0.73;0.63;;;25.00;44.30;;;;;;5057950;28;20040;-66
2022/06/14 03:52:29;;;;;;;1.15;0.70;;;25.00;44.30;;;;;;5056709;28;20146;-64
2022/06/14 03:55:17;;;;;;;0.98;0.73;;;25.00;44.30;;;;;;5055744;28;20044;-64
2022/06/14 03:58:21;;;;;;;0.80;0.70;;;25.00;44.30;;;;;;5059266;28;20543;-63
2022/06/14 04:00:56;;;;;;;1.08;0.90;;;25.00;44.30;;;;;;5056189;28;20047;-63
2022/06/14 04:03:48;;;;;;;0.80;0.80;;;25.00;44.30;;;;;;5058237;28;20024;-65
2022/06/14 04:06:32;;;;;;;0.60;0.60;;;25.00;44.30;;;;;;5058023;28;20040;-65
2022/06/14 04:09:23;;;;;;;0.63;0.63;;;25.00;44.40;;;;;;5054688;28;20082;-63
2022/06/14 04:11:58;;;;;;;0.60;0.60;;;25.00;44.40;;;;;;5057029;28;20051;-64
2022/06/14 04:14:40;;;;;;;0.90;0.70;;;25.00;44.40;;;;;;5056495;28;20058;-64
2022/06/14 04:17:28;;;;;;;0.73;0.70;;;25.00;44.40;;;;;;5056659;28;20082;-64
2022/06/14 04:20:09;;;;;;;0.65;0.65;;;25.00;44.40;;;;;;5058355;28;20071;-63
2022/06/14 04:22:44;;;;;;;0.82;0.70;;;24.90;44.40;;;;;;5058291;28;20063;-64
2022/06/14 04:25:20;;;;;;;0.90;0.70;;;25.00;44.50;;;;;;5055904;28;20457;-64
2022/06/14 04:27:59;;;;;;;0.82;0.70;;;24.90;44.40;;;;;;5056268;28;20052;-64
2022/06/14 04:30:32;;;;;;;0.70;0.70;;;25.00;44.50;;;;;;5057244;28;20025;-63
2022/06/14 04:33:14;;;;;;;0.52;0.52;;;24.90;44.50;;;;;;5057891;28;20795;-66
2022/06/14 04:35:54;;;;;;;0.70;0.70;;;24.90;44.50;;;;;;5056480;28;20075;-63
2022/06/14 04:38:30;;;;;;;0.85;0.80;;;24.90;44.50;;;;;;5056221;28;20126;-65
2022/06/14 04:41:13;;;;;;;0.70;0.70;;;24.90;44.50;;;;;;5055302;28;20032;-61
2022/06/14 04:43:54;;;;;;;0.98;0.70;;;24.90;44.50;;;;;;5057132;28;20035;-64
2022/06/14 04:46:25;;;;;;;0.70;0.70;;;24.90;45.10;;;;;;5056165;28;20090;-65
2022/06/14 04:49:09;;;;;;;0.77;0.73;;;24.90;44.50;;;;;;5056180;28;20071;-66
2022/06/14 04:51:53;;;;;;;0.88;0.70;;;24.90;44.60;;;;;;5057056;28;20797;-63
2022/06/14 04:54:35;;;;;;;0.90;0.70;;;24.80;44.60;;;;;;5055229;28;20033;-61
2022/06/14 04:57:17;;;;;;;0.65;0.60;;;24.80;44.60;;;;;;5055982;28;20031;-66
2022/06/14 04:59:53;;;;;;;0.93;0.70;;;24.90;44.60;;;;;;5057352;28;20088;-64
2022/06/14 05:02:45;;;;;;;1.15;0.85;;;24.90;44.70;;;;;;5056323;28;20085;-64
2022/06/14 05:05:21;;;;;;;0.73;0.70;;;24.90;44.60;;;;;;5041534;28;20055;-63
2022/06/14 05:07:53;;;;;;;0.82;0.77;;;24.90;44.70;;;;;;5056263;28;20051;-62
2022/06/14 05:10:30;;;;;;;0.70;0.70;;;24.80;44.60;;;;;;5056059;28;20052;-66
2022/06/14 05:13:15;;;;;;;0.70;0.70;;;24.80;44.70;;;;;;5055748;28;20045;-64
2022/06/14 05:15:45;;;;;;;0.80;0.70;;;24.80;44.60;;;;;;5054626;28;20429;-65
2022/06/14 05:18:36;;;;;;;1.00;0.80;;;24.80;44.70;;;;;;5056685;28;20090;-64
2022/06/14 05:21:05;;;;;;;0.60;0.60;;;24.80;44.70;;;;;;5040027;28;20040;-62
2022/06/14 05:23:42;;;;;;;0.50;0.50;;;24.80;44.70;;;;;;5056137;28;20027;-63
2022/06/14 05:26:24;;;;;;;0.90;0.65;;;24.80;44.70;;;;;;5055722;28;20043;-63
2022/06/14 05:29:22;;;;;;;0.73;0.70;;;24.80;44.70;;;;;;5055291;28;20075;-64
2022/06/14 05:32:00;;;;;;;1.35;0.70;;;24.80;44.70;;;;;;5054370;28;20055;-64
2022/06/14 05:34:44;;;;;;;0.80;0.70;;;24.80;44.70;;;;;;5055140;28;20051;-64
2022/06/14 05:37:22;;;;;;;0.98;0.85;;;24.80;44.70;;;;;;5057158;28;20472;-63
2022/06/14 05:40:22;;;;;;;0.68;0.68;;;24.80;44.80;;;;;;5055247;28;20043;-62
2022/06/14 05:43:05;;;;;;;1.00;0.80;;;24.80;44.80;;;;;;5050943;28;20036;-64
2022/06/14 05:45:32;;;;;;;0.80;0.65;;;24.80;44.80;;;;;;5055955;28;20032;-66
2022/06/14 05:48:07;;;;;;;1.00;0.80;;;24.80;44.80;;;;;;5057667;28;20709;-61
2022/06/14 05:50:42;;;;;;;1.00;0.80;;;24.80;44.80;;;;;;5054936;28;20039;-64
2022/06/14 05:53:28;;;;;;;0.82;0.70;;;24.80;44.80;;;;;;5049167;28;20572;-63
2022/06/14 05:56:09;;;;;;;0.73;0.70;;;24.80;44.90;;;;;;5054850;28;20040;-64
2022/06/14 05:59:04;;;;;;;0.75;0.70;;;24.80;44.80;;;;;;5057098;28;20239;-64
2022/06/14 06:01:41;;;;;;;0.70;0.65;;;24.80;44.90;;;;;;5049420;28;20032;-64
2022/06/14 06:04:13;;;;;;;0.60;0.60;;;24.80;44.90;;;;;;5050691;28;20029;-63
2022/06/14 06:06:44;;;;;;;0.88;0.70;;;24.80;45.00;;;;;;5052541;28;20379;-61
2022/06/14 06:09:10;;;;;;;0.90;0.80;;;24.70;44.90;;;;;;5049445;28;20472;-64
2022/06/14 06:12:11;;;;;;;0.80;0.77;;;24.80;45.00;;;;;;5054514;28;20047;-63
2022/06/14 06:14:46;;;;;;;0.85;0.70;;;24.70;44.90;;;;;;5053294;28;20056;-64
2022/06/14 06:17:20;;;;;;;0.70;0.70;;;24.80;45.00;;;;;;5056140;28;20118;-63
2022/06/14 06:20:02;;;;;;;0.65;0.60;;;24.70;45.00;;;;;;5036889;28;20033;-63
2022/06/14 06:23:20;;;;;;;1.83;1.00;;;24.70;45.00;;;;;;5054414;28;20024;-66
2022/06/14 06:25:49;;;;;;;2.00;1.40;;;24.70;44.70;;;;;;5006103;28;20041;-64
2022/06/14 06:28:25;;;;;;;2.60;1.50;;;24.70;44.30;;;;;;5054124;28;20115;-64
2022/06/14 06:31:07;;;;;;;3.08;1.95;;;24.60;44.20;;;;;;5054876;28;20743;-63
2022/06/14 06:33:41;;;;;;;3.47;2.20;;;24.50;44.20;;;;;;5055669;28;20044;-64
2022/06/14 06:36:28;;;;;;;3.28;1.83;;;24.40;43.80;;;;;;5052753;28;20053;-63
2022/06/14 06:39:03;;;;;;;5.03;2.30;;;24.30;44.10;;;;;;5055114;28;20135;-65
2022/06/14 06:41:50;;;;;;;4.75;2.33;;;24.40;43.70;;;;;;5057777;28;20336;-64
2022/06/14 06:44:36;;;;;;;4.75;2.28;;;24.40;43.30;;;;;;5051037;28;20044;-63
2022/06/14 06:47:35;;;;;;;4.15;2.00;;;24.40;42.60;;;;;;5051739;28;20619;-64
2022/06/14 06:50:04;;;;;;;4.93;1.88;;;24.30;42.70;;;;;;5035769;28;20543;-65
2022/06/14 06:52:47;;;;;;;4.33;2.20;;;24.30;42.60;;;;;;5054882;28;20059;-62
2022/06/14 06:55:33;;;;;;;4.00;1.95;;;24.30;42.50;;;;;;5052981;28;20081;-62
2022/06/14 06:58:01;;;;;;;3.33;1.80;;;24.30;42.40;;;;;;5054062;28;20129;-63
2022/06/14 07:00:30;;;;;;;3.73;1.90;;;24.30;42.30;;;;;;5055537;28;20031;-64
2022/06/14 07:03:04;;;;;;;3.83;1.87;;;24.20;42.60;;;;;;5054240;28;20035;-62
2022/06/14 07:05:29;;;;;;;2.80;1.70;;;24.10;42.70;;;;;;5054269;28;20047;-64
2022/06/14 07:07:59;;;;;;;3.22;1.90;;;24.10;43.00;;;;;;5052745;28;20037;-64
2022/06/14 07:10:31;;;;;;;2.97;1.90;;;24.00;43.10;;;;;;5054908;28;20020;-65
2022/06/14 07:13:03;;;;;;;3.15;1.67;;;24.00;43.30;;;;;;5055653;28;20036;-64
2022/06/14 07:15:51;;;;;;;3.10;1.85;;;24.00;43.20;;;;;;5058533;28;20060;-63
2022/06/14 07:18:52;;;;;;;2.53;1.55;;;24.00;43.10;;;;;;5045835;28;20052;-65
2022/06/14 07:21:33;;;;;;;2.50;1.60;;;24.00;43.10;;;;;;5022774;28;20119;-63
2022/06/14 07:24:17;;;;;;;2.58;1.30;;;24.00;43.20;;;;;;5052631;28;20403;-62
2022/06/14 07:26:54;;;;;;;3.15;1.55;;;24.10;43.20;;;;;;5050091;28;20456;-62
2022/06/14 07:29:51;;;;;;;2.97;1.58;;;24.00;43.20;;;;;;5052381;28;20032;-61
2022/06/14 07:32:25;;;;;;;2.53;1.40;;;24.10;43.30;;;;;;5055245;28;20127;-65
2022/06/14 07:34:52;;;;;;;2.28;1.38;;;24.10;43.40;;;;;;5056105;28;20067;-66
2022/06/14 07:37:45;;;;;;;2.78;1.50;;;24.10;43.40;;;;;;5053389;28;20032;-66
2022/06/14 07:40:25;;;;;;;2.70;1.50;;;24.10;43.40;;;;;;5054309;28;20025;-61
2022/06/14 07:43:13;;;;;;;2.13;1.35;;;24.10;43.50;;;;;;5056112;28;20052;-66
2022/06/14 07:45:42;;;;;;;1.77;1.20;;;24.10;43.50;;;;;;5056703;28;20468;-63
2022/06/14 07:48:35;;;;;;;2.05;1.20;;;24.10;43.60;;;;;;5056464;28;20040;-61
2022/06/14 07:51:15;;;;;;;2.08;1.20;;;24.10;43.60;;;;;;5044031;28;20122;-65
2022/06/14 07:53:47;;;;;;;2.92;1.33;;;24.10;43.60;;;;;;5054239;28;20060;-65
2022/06/14 07:56:20;;;;;;;2.20;1.30;;;24.10;43.70;;;;;;5055972;28;20456;-66
2022/06/14 07:59:17;;;;;;;2.30;1.27;;;24.10;43.70;;;;;;5054476;28;20519;-64
2022/06/14 08:02:01;;;;;;;3.17;1.25;;;24.10;43.80;;;;;;5038000;28;20381;-64
2022/06/14 08:04:46;;;;;;;1.80;1.10;;;24.10;43.80;;;;;;5053673;28;20617;-66
2022/06/14 08:07:18;;;;;;;2.05;1.20;;;24.10;43.80;;;;;;5055424;28;20487;-62
2022/06/14 08:10:13;;;;;;;2.10;1.20;;;24.10;43.80;;;;;;5056498;28;20074;-63
2022/06/14 08:12:52;;;;;;;1.90;1.15;;;24.10;43.80;;;;;;5051360;28;20334;-61
2022/06/14 08:15:35;;;;;;;2.35;1.30;;;24.10;43.80;;;;;;5057273;28;20120;-64
2022/06/14 08:18:29;;;;;;;2.60;1.30;;;24.10;43.90;;;;;;5060071;28;20024;-64
2022/06/14 08:21:09;;;;;;;2.67;1.33;;;24.10;43.90;;;;;;5050039;28;20115;-64
2022/06/14 08:23:44;;;;;;;2.30;1.38;;;24.10;43.90;;;;;;5054034;28;20347;-64
2022/06/14 08:26:18;;;;;;;2.03;1.20;;;24.10;44.00;;;;;;5055508;28;20060;-63
2022/06/14 08:28:52;;;;;;;1.95;1.30;;;24.10;44.00;;;;;;5057741;28;20036;-64
2022/06/14 08:31:34;;;;;;;2.17;1.25;;;24.10;44.00;;;;;;5055258;28;20123;-62
2022/06/14 08:34:11;;;;;;;1.50;1.02;;;24.10;44.00;;;;;;5047020;28;20048;-64
2022/06/14 08:36:45;;;;;;;1.85;1.20;;;24.10;44.00;;;;;;5052218;28;20037;-61
2022/06/14 08:39:17;;;;;;;2.85;1.30;;;24.10;44.50;;;;;;5054386;28;20141;-61
2022/06/14 08:41:45;;;;;;;2.25;1.40;;;24.10;44.00;;;;;;5055190;28;20028;-66
2022/06/14 08:44:12;;;;;;;2.20;1.40;;;24.10;44.00;;;;;;5056365;28;20082;-65
2022/06/14 08:47:00;;;;;;;2.58;1.30;;;24.10;44.10;;;;;;5054178;28;20047;-64
2022/06/14 08:49:32;;;;;;;2.20;1.40;;;24.10;44.10;;;;;;5058581;28;20048;-64
2022/06/14 08:52:22;;;;;;;2.42;1.33;;;24.10;44.20;;;;;;5055239;28;20028;-63
2022/06/14 08:55:11;;;;;;;2.22;1.30;;;24.10;44.10;;;;;;5052350;28;20082;-64
2022/06/14 08:57:58;;;;;;;2.25;1.52;;;24.10;44.10;;;;;;5055905;28;20100;-62
2022/06/14 09:00:50;;;;;;;2.63;1.30;;;24.10;44.20;;;;;;5055239;28;20108;-63
2022/06/14 09:03:47;;;;;;;2.20;1.42;;;24.20;44.20;;;;;;5057172;28;20049;-61
2022/06/14 09:06:43;;;;;;;1.90;1.27;;;24.10;44.20;;;;;;4992564;28;21987;-63
2022/06/14 09:09:21;;;;;;;2.55;1.30;;;24.10;44.20;;;;;;5055106;28;20024;-64
2022/06/14 09:11:59;;;;;;;1.83;1.33;;;24.10;44.20;;;;;;5057661;28;20916;-63
2022/06/14 09:14:51;;;;;;;2.37;1.30;;;24.10;44.30;;;;;;5055647;28;20028;-63
2022/06/14 09:17:52;;;;;;;2.35;1.30;;;24.10;44.30;;;;;;5051689;28;20468;-66
2022/06/14 09:20:26;;;;;;;2.40;1.30;;;24.10;44.30;;;;;;5044229;28;20043;-65
2022/06/14 09:23:19;;;;;;;1.60;1.13;;;24.10;44.30;;;;;;5055869;28;20094;-65
2022/06/14 09:26:20;;;;;;;1.92;1.27;;;24.10;44.30;;;;;;5055286;28;20025;-63
2022/06/14 09:29:21;;;;;;;2.13;1.30;;;24.10;44.30;;;;;;4990458;28;20472;-65
2022/06/14 09:32:10;;;;;;;1.90;1.30;;;24.20;44.30;;;;;;5050763;28;20397;-65
2022/06/14 09:34:49;;;;;;;1.77;1.30;;;24.20;44.30;;;;;;5057356;28;20028;-63
2022/06/14 09:37:40;;;;;;;2.47;1.48;;;24.10;44.30;;;;;;5059117;28;20575;-63
2022/06/14 09:40:24;;;;;;;1.85;1.30;;;24.10;44.30;;;;;;5051838;28;20040;-62
2022/06/14 09:43:08;;;;;;;1.90;1.20;;;24.20;44.30;;;;;;5056627;28;20043;-62
2022/06/14 09:46:18;;;;;;;2.10;1.50;;;24.20;44.40;;;;;;5056396;28;20078;-62
2022/06/14 09:48:53;;;;;;;2.22;1.30;;;24.20;44.40;;;;;;5057050;28;20496;-61
2022/06/14 09:51:34;;;;;;;1.90;1.20;;;24.10;44.40;;;;;;5055671;28;20029;-64
2022/06/14 09:54:38;;;;;;;2.17;1.25;;;24.20;44.50;;;;;;5054510;28;20919;-63
2022/06/14 09:57:16;;;;;;;1.77;1.20;;;24.20;44.40;;;;;;5055575;28;20032;-63
2022/06/14 09:59:47;;;;;;;1.85;1.10;;;24.20;44.50;;;;;;5056171;28;20097;-61
2022/06/14 10:02:19;;;;;;;2.03;1.20;;;24.20;44.50;;;;;;5057670;28;20101;-64
2022/06/14 10:04:50;;;;;;;1.80;1.15;;;24.20;44.50;;;;;;5054383;28;20031;-62
2022/06/14 10:07:34;;;;;;;2.10;1.25;;;24.20;44.50;;;;;;5058055;28;20036;-63
2022/06/14 10:10:18;;;;;;;1.90;1.17;;;24.20;44.50;;;;;;5053018;28;20024;-65
2022/06/14 10:12:56;;;;;;;1.98;1.17;;;24.20;44.50;;;;;;5038100;28;20135;-64
2022/06/14 10:15:47;;;;;;;1.83;1.13;;;24.20;44.60;;;;;;5056317;28;20173;-63
2022/06/14 10:18:54;;;;;;;1.77;1.10;;;24.20;44.60;;;;;;5056101;28;20029;-62
2022/06/14 10:21:33;;;;;;;2.00;1.20;;;24.20;44.60;;;;;;5035314;28;20035;-65
2022/06/14 10:24:29;;;;;;;2.15;1.30;;;24.20;44.70;;;;;;5053426;28;20546;-61
2022/06/14 10:30:13;;;;;;;2.08;1.20;;;24.20;44.70;;;;;;5061049;28;20051;-62
2022/06/14 10:33:00;;;;;;;2.05;1.10;;;24.20;44.70;;;;;;5059318;28;20056;-62
2022/06/14 10:35:41;;;;;;;2.25;1.30;;;24.20;44.70;;;;;;5057603;28;20059;-65
2022/06/14 10:38:28;;;;;;;2.45;1.33;;;24.20;44.80;;;;;;5058327;28;20062;-63
2022/06/14 10:41:29;;;;;;;2.65;1.38;;;24.20;44.80;;;;;;5057443;28;20034;-65
2022/06/14 10:44:14;;;;;;;2.75;1.30;;;24.20;44.80;;;;;;5058807;28;20047;-65
2022/06/14 10:46:54;;;;;;;2.58;1.30;;;24.20;45.00;;;;;;5060880;28;20028;-63
2022/06/14 10:49:57;;;;;;;3.20;1.60;;;24.20;44.90;;;;;;5060103;28;20072;-64
2022/06/14 10:52:53;;;;;;;2.85;1.50;;;24.20;44.90;;;;;;5059066;28;20492;-62
2022/06/14 10:55:40;;;;;;;2.40;1.50;;;24.20;44.90;;;;;;5057380;28;20471;-63
2022/06/14 10:58:35;;;;;;;2.42;1.38;;;24.20;44.90;;;;;;5059369;28;20028;-62
2022/06/14 11:01:38;;;;;;;3.30;1.40;;;24.20;44.90;;;;;;5060128;28;20360;-65
2022/06/14 11:04:04;;;;;;;3.35;1.60;;;24.20;44.90;;;;;;5059991;28;20069;-63
2022/06/14 11:06:46;;;;;;;2.47;1.50;;;24.30;45.00;;;;;;5058614;28;20028;-63
2022/06/14 11:09:11;;;;;;;2.75;1.40;;;24.30;45.00;;;;;;5058870;28;20025;-62
2022/06/14 11:12:02;;;;;;;3.00;1.50;;;24.30;45.10;;;;;;5058221;28;20500;-63
2022/06/14 11:14:34;;;;;;;3.05;1.58;;;24.20;45.00;;;;;;5058535;28;20099;-64
2022/06/14 11:17:02;;;;;;;3.30;1.50;;;24.30;45.10;;;;;;5058785;28;20481;-61
2022/06/14 11:19:37;;;;;;;2.95;1.60;;;24.30;45.10;;;;;;5059464;28;20377;-63
2022/06/14 11:22:12;;;;;;;3.25;1.58;;;24.30;45.10;;;;;;5056385;28;20448;-63
2022/06/14 11:24:50;;;;;;;3.78;1.70;;;24.30;45.10;;;;;;5057310;28;20019;-65
2022/06/14 11:27:40;;;;;;;3.20;1.60;;;24.30;45.10;;;;;;5058908;28;20101;-62
2022/06/14 11:30:15;;;;;;;2.85;1.60;;;24.30;45.10;;;;;;5058036;28;20111;-64
2022/06/14 11:32:54;;;;;;;3.00;1.60;;;24.30;45.10;;;;;;5058288;28;20021;-63
2022/06/14 11:35:41;;;;;;;3.80;2.05;;;24.30;45.10;;;;;;5057264;28;20063;-63
2022/06/14 11:38:13;;;;;;;3.60;1.77;;;24.30;45.10;;;;;;5056959;28;20131;-63
2022/06/14 11:40:47;;;;;;;2.55;1.60;;;24.30;45.10;;;;;;5057925;28;20062;-63
2022/06/14 11:43:37;;;;;;;2.70;1.40;;;24.30;45.10;;;;;;5059354;28;20035;-64
2022/06/14 11:46:30;;;;;;;3.20;1.50;;;24.30;45.10;;;;;;5058435;28;20026;-64
2022/06/14 11:49:09;;;;;;;2.63;1.40;;;24.30;45.10;;;;;;5059789;28;20036;-64
2022/06/14 11:51:40;;;;;;;2.72;1.50;;;24.30;45.10;;;;;;5059071;28;20536;-62
2022/06/14 11:54:25;;;;;;;3.53;1.70;;;24.30;45.10;;;;;;5056195;28;20032;-63
2022/06/14 11:56:56;;;;;;;2.58;1.60;;;24.30;45.10;;;;;;5058586;28;20027;-60
2022/06/14 12:00:03;;;;;;;3.20;1.40;;;24.30;45.10;;;;;;5060059;28;20050;-64
2022/06/14 12:02:55;;;;;;;2.80;1.65;;;24.30;45.20;;;;;;5034540;28;20067;-63
2022/06/14 12:05:53;;;;;;;2.20;1.50;;;24.30;45.20;;;;;;5058379;28;20020;-65
2022/06/14 12:08:25;;;;;;;2.27;1.47;;;24.30;45.20;;;;;;5042682;28;20067;-65
2022/06/14 12:11:27;;;;;;;1.88;1.25;;;24.30;45.20;;;;;;5055398;28;20513;-64
2022/06/14 12:14:08;;;;;;;2.15;1.30;;;24.30;45.30;;;;;;5056589;28;20393;-65
2022/06/14 12:16:42;;;;;;;3.30;1.35;;;24.30;45.30;;;;;;5057256;28;20479;-64
2022/06/14 12:19:15;;;;;;;3.08;1.45;;;24.30;45.30;;;;;;5056943;28;20036;-62
2022/06/14 12:21:57;;;;;;;2.67;1.33;;;24.30;45.30;;;;;;5058123;28;20024;-63
2022/06/14 12:26:34;;;;;;;2.38;1.50;;;24.30;45.30;;;;;;5057248;28;20526;-63
2022/06/14 12:27:18;;;;;;;2.83;1.38;;;24.30;45.30;;;;;;5058850;28;20654;-62
2022/06/14 12:29:47;;;;;;;2.65;1.45;;;24.30;45.30;;;;;;5057325;28;20024;-65
2022/06/14 12:32:12;;;;;;;2.83;1.42;;;24.30;45.30;;;;;;5054837;28;20472;-64
2022/06/14 12:34:46;;;;;;;3.15;1.58;;;24.30;45.30;;;;;;5053051;28;20039;-64
2022/06/14 12:37:55;;;;;;;3.25;1.45;;;24.30;45.30;;;;;;5054323;28;20047;-63
2022/06/14 12:40:30;;;;;;;1.95;1.27;;;24.30;45.30;;;;;;4952857;28;20093;-63
2022/06/14 12:43:29;;;;;;;2.25;1.50;;;24.30;45.30;;;;;;4951818;28;20594;-63
2022/06/14 12:46:03;;;;;;;1.98;1.30;;;24.30;45.30;;;;;;5029998;28;20393;-63
2022/06/14 12:48:38;;;;;;;2.58;1.60;;;24.30;45.30;;;;;;5050243;28;20151;-63
2022/06/14 12:51:17;;;;;;;1.85;1.30;;;24.30;45.30;;;;;;5054697;28;20846;-61
2022/06/14 12:53:45;;;;;;;2.10;1.30;;;24.30;45.30;;;;;;5052242;28;20119;-63
2022/06/14 12:56:21;;;;;;;2.00;1.48;;;24.30;45.30;;;;;;5052463;28;20411;-64
2022/06/14 12:59:10;;;;;;;2.17;1.38;;;24.40;45.40;;;;;;5052579;28;20170;-64
2022/06/14 13:01:55;;;;;;;3.65;1.45;;;24.40;45.40;;;;;;5051736;28;20046;-64
2022/06/14 13:04:41;;;;;;;2.03;1.40;;;24.40;45.50;;;;;;5051835;28;20094;-63
2022/06/14 13:07:13;;;;;;;2.03;1.25;;;24.40;45.50;;;;;;5054196;28;20117;-64
2022/06/14 13:09:59;;;;;;;2.10;1.30;;;24.40;45.50;;;;;;5050713;28;20040;-62
2022/06/14 13:12:33;;;;;;;2.20;1.23;;;24.40;45.50;;;;;;5051869;28;20059;-63
2022/06/14 13:15:32;;;;;;;2.15;1.30;;;24.40;45.50;;;;;;5056725;28;20071;-61
2022/06/14 13:18:24;;;;;;;2.33;1.33;;;24.40;45.50;;;;;;5055966;28;20147;-63
2022/06/14 13:21:17;;;;;;;2.25;1.30;;;24.40;46.00;;;;;;5054163;28;20033;-62
2022/06/14 13:24:08;;;;;;;2.28;1.30;;;24.40;45.50;;;;;;5052521;28;20357;-63
2022/06/14 13:26:58;;;;;;;2.63;1.42;;;24.40;45.50;;;;;;5052557;28;20103;-60
2022/06/14 13:29:36;;;;;;;2.83;1.60;;;24.40;45.50;;;;;;5051803;28;20031;-62
2022/06/14 13:32:13;;;;;;;2.55;1.50;;;24.40;45.50;;;;;;5053606;28;20043;-63
2022/06/14 13:35:03;;;;;;;2.20;1.40;;;24.40;45.50;;;;;;5055467;28;21060;-62
2022/06/14 13:37:34;;;;;;;1.90;1.20;;;24.40;45.60;;;;;;5053960;28;20091;-64
2022/06/14 13:40:24;;;;;;;2.15;1.33;;;24.40;45.50;;;;;;5054194;28;20044;-61
2022/06/14 13:42:56;;;;;;;2.25;1.30;;;24.50;45.60;;;;;;5054663;28;20088;-63
2022/06/14 13:45:40;;;;;;;2.17;1.20;;;24.40;45.50;;;;;;5054978;28;20028;-61
2022/06/14 13:48:19;;;;;;;2.13;1.30;;;24.50;45.60;;;;;;5055780;28;20116;-63
2022/06/14 13:50:51;;;;;;;2.03;1.00;;;24.50;45.60;;;;;;5050973;28;20033;-61
2022/06/14 13:53:27;;;;;;;2.40;1.40;;;24.50;45.60;;;;;;5052296;28;20037;-61
2022/06/14 13:56:19;;;;;;;2.35;1.35;;;24.50;45.60;;;;;;5050691;28;20063;-66
2022/06/14 13:59:00;;;;;;;1.58;1.25;;;24.50;45.60;;;;;;5039230;28;20044;-63
2022/06/14 14:01:54;;;;;;;2.08;1.33;;;24.50;45.60;;;;;;5052688;28;20221;-64
2022/06/14 14:04:48;;;;;;;1.77;1.17;;;24.50;45.60;;;;;;5056054;28;20051;-63
2022/06/14 14:07:28;;;;;;;2.45;1.40;;;24.50;45.60;;;;;;5056336;28;20104;-64